createdAt,value
2023-05-07T00:00:11.301Z,3.88
2023-05-07T00:02:41.133Z,3.85
2023-05-07T00:05:10.829Z,4.28
2023-05-07T00:07:40.545Z,3.58
2023-05-07T00:10:10.447Z,3.30
2023-05-07T00:12:39.830Z,1.92
2023-05-07T00:15:09.992Z,1.83
2023-05-07T00:17:39.767Z,1.80
2023-05-07T00:20:10.559Z,1.95
2023-05-07T00:22:39.959Z,1.98
2023-05-07T00:25:09.828Z,1.40
2023-05-07T00:27:39.300Z,1.48
2023-05-07T00:30:09.880Z,1.38
2023-05-07T00:32:39.713Z,1.38
2023-05-07T00:35:09.862Z,1.05
2023-05-07T00:37:39.594Z,1.30
2023-05-07T00:40:10.392Z,1.50
2023-05-07T00:42:40.261Z,0.90
2023-05-07T00:45:09.851Z,1.08
2023-05-07T00:47:39.439Z,1.00
2023-05-07T00:50:09.981Z,1.20
2023-05-07T00:52:40.185Z,1.15
2023-05-07T00:55:10.359Z,1.35
2023-05-07T00:57:41.894Z,1.08
2023-05-07T01:00:12.639Z,1.08
2023-05-07T01:02:42.837Z,0.90
2023-05-07T01:05:17.663Z,1.05
2023-05-07T01:07:47.883Z,1.13
2023-05-07T01:10:18.444Z,1.13
2023-05-07T01:12:50.403Z,1.00
2023-05-07T01:15:20.476Z,0.70
2023-05-07T01:17:50.237Z,1.05
2023-05-07T01:20:30.596Z,0.88
2023-05-07T01:23:00.136Z,0.90
2023-05-07T01:25:29.496Z,0.80
2023-05-07T01:28:04.539Z,0.82
2023-05-07T01:30:38.521Z,1.00
2023-05-07T01:33:13.457Z,0.60
2023-05-07T01:35:47.758Z,0.80
2023-05-07T01:38:18.058Z,0.85
2023-05-07T01:40:48.450Z,0.77
2023-05-07T01:43:17.916Z,0.90
2023-05-07T01:45:48.246Z,1.13
2023-05-07T01:48:18.582Z,0.60
2023-05-07T01:50:48.659Z,1.00
2023-05-07T01:53:17.739Z,0.80
2023-05-07T01:55:47.501Z,0.90
2023-05-07T01:58:17.033Z,0.70
2023-05-07T02:00:46.500Z,0.88
2023-05-07T02:03:16.071Z,1.08
2023-05-07T02:06:03.504Z,0.60
2023-05-07T02:08:40.185Z,1.35
2023-05-07T02:11:09.829Z,1.05
2023-05-07T02:13:40.039Z,0.82
2023-05-07T02:16:09.923Z,0.95
2023-05-07T02:18:41.054Z,1.10
2023-05-07T02:21:10.528Z,1.20
2023-05-07T02:23:39.750Z,0.93
2023-05-07T02:26:09.117Z,0.80
2023-05-07T02:28:38.766Z,1.95
2023-05-07T02:31:08.646Z,0.95
2023-05-07T02:33:38.717Z,1.33
2023-05-07T02:36:14.420Z,1.30
2023-05-07T02:38:50.299Z,1.70
2023-05-07T02:41:20.664Z,1.67
2023-05-07T02:43:50.356Z,1.48
2023-05-07T02:46:20.655Z,1.35
2023-05-07T02:48:55.936Z,1.25
2023-05-07T02:51:26.229Z,1.58
2023-05-07T02:53:58.311Z,2.38
2023-05-07T02:56:29.264Z,1.17
2023-05-07T02:58:59.268Z,1.60
2023-05-07T03:01:32.907Z,1.30
2023-05-07T03:04:08.126Z,1.50
2023-05-07T03:06:37.420Z,1.42
2023-05-07T03:09:06.663Z,1.63
2023-05-07T03:11:36.126Z,1.55
2023-05-07T03:14:05.332Z,1.70
2023-05-07T03:16:35.181Z,1.45
2023-05-07T03:19:04.772Z,1.70
2023-05-07T03:21:35.800Z,2.10
2023-05-07T03:24:06.112Z,1.55
2023-05-07T03:26:35.840Z,1.95
2023-05-07T03:29:05.407Z,1.63
2023-05-07T03:31:35.260Z,1.92
2023-05-07T03:34:04.651Z,1.70
2023-05-07T03:36:33.865Z,1.90
2023-05-07T03:39:03.583Z,1.90
2023-05-07T03:41:39.243Z,1.52
2023-05-07T03:44:09.574Z,2.00
2023-05-07T03:46:39.467Z,1.33
2023-05-07T03:49:10.750Z,1.73
2023-05-07T03:51:40.058Z,2.35
2023-05-07T03:54:10.667Z,1.60
2023-05-07T03:56:45.310Z,1.50
2023-05-07T03:59:15.490Z,1.70
2023-05-07T04:01:47.412Z,1.55
2023-05-07T04:04:19.816Z,1.40
2023-05-07T04:06:49.518Z,1.67
2023-05-07T04:09:18.746Z,1.77
2023-05-07T04:11:50.189Z,1.63
2023-05-07T04:14:19.474Z,1.65
2023-05-07T04:16:48.622Z,1.45
2023-05-07T04:19:19.742Z,1.20
2023-05-07T04:21:52.930Z,1.50
2023-05-07T04:24:22.593Z,1.50
2023-05-07T04:26:53.178Z,1.45
2023-05-07T04:29:23.846Z,1.33
2023-05-07T04:31:53.354Z,1.80
2023-05-07T04:34:23.226Z,1.50
2023-05-07T04:36:54.577Z,1.77
2023-05-07T04:39:23.732Z,2.40
2023-05-07T04:41:53.297Z,1.67
2023-05-07T04:44:22.959Z,1.67
2023-05-07T04:46:52.169Z,1.58
2023-05-07T04:49:21.624Z,1.50
2023-05-07T04:51:53.054Z,1.33
2023-05-07T04:54:24.729Z,1.48
2023-05-07T04:56:54.463Z,1.92
2023-05-07T04:59:24.065Z,1.75
2023-05-07T05:01:53.732Z,1.92
2023-05-07T05:04:23.078Z,1.83
2023-05-07T05:06:52.777Z,2.33
2023-05-07T05:09:21.997Z,1.90
2023-05-07T05:11:51.752Z,1.88
2023-05-07T05:14:21.185Z,1.90
2023-05-07T05:16:50.597Z,2.10
2023-05-07T05:19:20.038Z,2.33
2023-05-07T05:21:49.699Z,2.05
2023-05-07T05:24:19.217Z,2.15
2023-05-07T05:26:48.487Z,2.13
2023-05-07T05:29:18.412Z,2.30
2023-05-07T05:31:47.830Z,2.47
2023-05-07T05:34:17.357Z,2.55
2023-05-07T05:36:47.397Z,2.22
2023-05-07T05:39:17.806Z,2.20
2023-05-07T05:41:47.687Z,1.88
2023-05-07T05:44:17.137Z,2.13
2023-05-07T05:46:46.681Z,2.15
2023-05-07T05:49:16.512Z,1.95
2023-05-07T05:51:46.498Z,2.08
2023-05-07T05:54:17.523Z,1.88
2023-05-07T05:56:47.029Z,1.70
2023-05-07T05:59:17.301Z,1.83
2023-05-07T06:01:47.697Z,2.03
2023-05-07T06:04:16.836Z,2.22
2023-05-07T06:06:46.696Z,2.15
2023-05-07T06:09:16.383Z,2.05
2023-05-07T06:11:47.340Z,1.77
2023-05-07T06:14:17.699Z,1.90
2023-05-07T06:16:47.017Z,2.50
2023-05-07T06:19:16.920Z,2.80
2023-05-07T06:21:46.616Z,2.33
2023-05-07T06:24:15.986Z,2.22
2023-05-07T06:26:49.053Z,2.40
2023-05-07T06:29:21.615Z,2.22
2023-05-07T06:31:55.919Z,2.53
2023-05-07T06:34:26.131Z,3.85
2023-05-07T06:36:55.640Z,3.17
2023-05-07T06:39:42.422Z,2.80
2023-05-07T06:42:12.644Z,3.00
2023-05-07T06:44:44.901Z,2.80
2023-05-07T06:47:17.296Z,2.58
2023-05-07T06:49:49.798Z,2.50
2023-05-07T06:52:22.027Z,2.20
2023-05-07T06:54:53.316Z,2.55
2023-05-07T06:57:24.985Z,2.28
2023-05-07T06:59:58.460Z,2.90
2023-05-07T07:02:28.814Z,2.75
2023-05-07T07:04:58.409Z,2.70
2023-05-07T07:07:27.995Z,2.72
2023-05-07T07:09:57.762Z,2.58
2023-05-07T07:12:28.078Z,2.90
2023-05-07T07:14:57.749Z,2.58
2023-05-07T07:17:27.505Z,2.80
2023-05-07T07:19:57.992Z,2.45
2023-05-07T07:22:27.386Z,2.83
2023-05-07T07:24:56.882Z,2.88
2023-05-07T07:27:27.585Z,3.60
2023-05-07T07:29:56.961Z,2.70
2023-05-07T07:32:28.290Z,2.90
2023-05-07T07:34:57.623Z,2.90
2023-05-07T07:37:27.608Z,2.42
2023-05-07T07:39:58.245Z,2.97
2023-05-07T07:42:28.391Z,2.78
2023-05-07T07:44:59.379Z,2.33
2023-05-07T07:47:32.029Z,2.58
2023-05-07T07:50:01.721Z,2.38
2023-05-07T07:52:31.725Z,3.00
2023-05-07T07:55:01.123Z,2.35
2023-05-07T07:57:30.884Z,2.25
2023-05-07T08:00:00.470Z,2.25
2023-05-07T08:02:31.906Z,2.08
2023-05-07T08:05:01.112Z,2.45
2023-05-07T08:07:30.271Z,2.13
2023-05-07T08:09:59.831Z,3.22
2023-05-07T08:12:32.024Z,2.30
2023-05-07T08:15:02.044Z,2.53
2023-05-07T08:17:31.943Z,2.42
2023-05-07T08:20:01.521Z,2.70
2023-05-07T08:22:36.241Z,2.10
2023-05-07T08:25:06.564Z,2.40
2023-05-07T08:27:35.966Z,2.35
2023-05-07T08:30:05.986Z,2.50
2023-05-07T08:32:35.614Z,2.78
2023-05-07T08:35:05.410Z,2.63
2023-05-07T08:37:35.443Z,2.75
2023-05-07T08:40:06.747Z,2.40
2023-05-07T08:42:40.578Z,2.67
2023-05-07T08:45:13.457Z,3.13
2023-05-07T08:47:49.416Z,2.75
2023-05-07T08:50:20.761Z,2.13
2023-05-07T08:52:52.240Z,2.83
2023-05-07T08:55:26.357Z,2.38
2023-05-07T08:57:56.897Z,2.97
2023-05-07T09:00:26.424Z,2.67
2023-05-07T09:02:57.546Z,2.92
2023-05-07T09:05:27.872Z,3.55
2023-05-07T09:07:58.464Z,3.08
2023-05-07T09:10:29.143Z,2.92
2023-05-07T09:12:58.577Z,3.03
2023-05-07T09:15:30.784Z,2.50
2023-05-07T09:18:03.664Z,2.92
2023-05-07T09:20:35.943Z,2.88
2023-05-07T09:23:05.821Z,2.55
2023-05-07T09:25:36.899Z,2.72
2023-05-07T09:28:13.512Z,3.10
2023-05-07T09:30:43.466Z,3.95
2023-05-07T09:33:15.179Z,2.80
2023-05-07T09:35:49.552Z,2.67
2023-05-07T09:38:23.783Z,3.13
2023-05-07T09:41:28.345Z,2.95
2023-05-07T09:44:06.201Z,3.38
2023-05-07T09:46:44.415Z,3.47
2023-05-07T09:49:27.330Z,3.50
2023-05-07T09:52:03.966Z,3.25
2023-05-07T09:54:39.938Z,3.53
2023-05-07T09:57:11.591Z,3.45
2023-05-07T09:59:46.086Z,3.42
2023-05-07T10:02:20.448Z,4.20
2023-05-07T10:04:56.789Z,3.20
2023-05-07T10:07:32.137Z,2.70
2023-05-07T10:10:09.347Z,3.72
2023-05-07T10:12:44.073Z,3.28
2023-05-07T10:15:19.748Z,3.28
2023-05-07T10:17:55.894Z,3.53
2023-05-07T10:20:27.985Z,4.10
2023-05-07T10:22:59.814Z,4.72
2023-05-07T10:25:37.441Z,3.40
2023-05-07T10:28:15.427Z,4.22
2023-05-07T10:31:04.942Z,3.00
2023-05-07T10:33:42.722Z,3.33
2023-05-07T10:36:13.077Z,3.83
2023-05-07T10:38:43.026Z,3.05
2023-05-07T10:41:13.568Z,2.92
2023-05-07T10:43:47.705Z,3.40
2023-05-07T10:46:31.729Z,3.50
2023-05-07T10:49:16.228Z,3.60
2023-05-07T10:52:23.745Z,2.95
2023-05-07T10:55:27.124Z,3.42
2023-05-07T10:58:32.521Z,3.70
2023-05-07T11:01:57.322Z,3.50
2023-05-07T11:04:36.850Z,3.50
2023-05-07T11:07:32.420Z,3.15
2023-05-07T11:12:58.243Z,3.25
2023-05-07T11:15:39.569Z,2.85
2023-05-07T11:18:20.295Z,3.15
2023-05-07T11:21:01.629Z,3.53
2023-05-07T11:23:39.838Z,3.00
2023-05-07T11:26:32.541Z,3.10
2023-05-07T11:29:03.058Z,3.60
2023-05-07T11:31:32.596Z,3.40
2023-05-07T11:34:03.999Z,3.55
2023-05-07T11:36:35.573Z,3.72
2023-05-07T11:39:09.305Z,3.40
2023-05-07T11:41:39.981Z,3.60
2023-05-07T11:44:09.365Z,3.60
2023-05-07T11:46:38.936Z,3.65
2023-05-07T11:49:08.747Z,3.08
2023-05-07T11:51:39.214Z,2.95
2023-05-07T11:54:13.351Z,3.33
2023-05-07T11:56:43.364Z,3.28
2023-05-07T11:59:12.506Z,4.10
2023-05-07T12:01:42.107Z,3.45
2023-05-07T12:04:14.243Z,3.47
2023-05-07T12:06:44.006Z,3.10
2023-05-07T12:09:13.711Z,3.08
2023-05-07T12:11:48.109Z,3.60
2023-05-07T12:14:20.264Z,3.75
2023-05-07T12:16:50.074Z,3.65
2023-05-07T12:19:20.073Z,3.20
2023-05-07T12:21:50.045Z,3.13
2023-05-07T12:24:21.939Z,3.30
2023-05-07T12:26:52.007Z,3.15
2023-05-07T12:29:25.021Z,3.30
2023-05-07T12:31:55.041Z,3.47
2023-05-07T12:34:25.184Z,3.10
2023-05-07T12:36:56.180Z,3.90
2023-05-07T12:39:25.387Z,3.40
2023-05-07T12:42:02.161Z,3.63
2023-05-07T12:44:35.551Z,3.85
2023-05-07T12:47:05.587Z,3.50
2023-05-07T12:49:39.835Z,3.67
2023-05-07T12:52:14.260Z,3.40
2023-05-07T12:54:44.187Z,3.35
2023-05-07T12:57:13.393Z,3.50
2023-05-07T12:59:44.261Z,4.07
2023-05-07T13:02:13.650Z,3.47
2023-05-07T13:04:44.737Z,4.25
2023-05-07T13:07:14.392Z,4.20
2023-05-07T13:09:44.489Z,4.95
2023-05-07T13:12:13.662Z,4.60
2023-05-07T13:14:42.673Z,4.57
2023-05-07T13:17:12.513Z,4.78
2023-05-07T13:19:41.615Z,5.30
2023-05-07T13:22:10.944Z,5.18
2023-05-07T13:24:40.310Z,4.95
2023-05-07T13:27:10.395Z,5.35
2023-05-07T13:29:39.604Z,6.20
2023-05-07T13:32:08.918Z,5.30
2023-05-07T13:34:38.986Z,5.72
2023-05-07T13:37:11.196Z,5.65
2023-05-07T13:39:41.017Z,5.18
2023-05-07T13:42:10.233Z,6.25
2023-05-07T13:44:39.389Z,6.35
2023-05-07T13:47:09.409Z,5.53
2023-05-07T13:49:38.444Z,5.93
2023-05-07T13:52:07.676Z,6.40
2023-05-07T13:54:36.870Z,6.40
2023-05-07T13:57:06.402Z,6.03
2023-05-07T13:59:36.010Z,6.70
2023-05-07T14:02:05.502Z,6.72
2023-05-07T14:04:34.737Z,5.93
2023-05-07T14:07:04.044Z,6.65
2023-05-07T14:09:33.592Z,7.05
2023-05-07T14:12:03.495Z,6.57
2023-05-07T14:14:32.814Z,7.00
2023-05-07T14:17:02.421Z,7.20
2023-05-07T14:19:35.148Z,7.20
2023-05-07T14:22:04.700Z,7.93
2023-05-07T14:24:38.756Z,8.23
2023-05-07T14:27:08.869Z,8.35
2023-05-07T14:29:38.675Z,9.80
2023-05-07T14:32:08.365Z,12.32
2023-05-07T14:34:37.400Z,11.18
2023-05-07T14:37:07.335Z,10.93
2023-05-07T14:39:36.639Z,10.25
2023-05-07T14:42:05.915Z,9.43
2023-05-07T14:44:37.148Z,8.50
2023-05-07T14:47:06.586Z,8.25
2023-05-07T14:49:36.377Z,7.40
2023-05-07T14:52:10.634Z,7.13
2023-05-07T14:54:40.581Z,7.10
2023-05-07T14:57:12.718Z,6.38
2023-05-07T14:59:42.225Z,6.20
2023-05-07T15:02:13.017Z,6.20
2023-05-07T15:04:47.617Z,6.03
2023-05-07T15:07:18.176Z,6.60
2023-05-07T15:09:48.113Z,6.57
2023-05-07T15:12:18.079Z,6.25
2023-05-07T15:14:47.235Z,5.57
2023-05-07T15:17:17.292Z,5.93
2023-05-07T15:19:46.533Z,6.13
2023-05-07T15:22:19.481Z,6.13
2023-05-07T15:24:49.016Z,5.97
2023-05-07T15:27:19.412Z,7.05
2023-05-07T15:30:13.048Z,5.80
2023-05-07T15:32:54.806Z,5.35
2023-05-07T15:35:25.374Z,6.38
2023-05-07T15:37:55.193Z,6.10
2023-05-07T15:40:24.260Z,5.72
2023-05-07T15:42:57.930Z,6.47
2023-05-07T15:45:27.400Z,6.03
2023-05-07T15:47:57.582Z,6.30
2023-05-07T15:50:27.198Z,6.65
2023-05-07T15:52:56.400Z,6.78
2023-05-07T15:55:26.576Z,7.47
2023-05-07T15:57:56.288Z,9.00
2023-05-07T16:00:29.538Z,9.48
2023-05-07T16:02:59.817Z,9.50
2023-05-07T16:05:29.269Z,11.55
2023-05-07T16:07:59.340Z,13.15
2023-05-07T16:10:28.932Z,12.07
2023-05-07T16:12:58.143Z,12.85
2023-05-07T16:15:27.851Z,14.48
2023-05-07T16:17:58.909Z,14.10
2023-05-07T16:20:33.976Z,12.95
2023-05-07T16:23:03.222Z,12.15
2023-05-07T16:25:32.927Z,11.77
2023-05-07T16:28:02.515Z,13.65
2023-05-07T16:30:32.375Z,14.15
2023-05-07T16:33:02.064Z,16.75
2023-05-07T16:35:32.370Z,17.25
2023-05-07T16:38:02.316Z,18.95
2023-05-07T16:40:31.413Z,19.40
2023-05-07T16:43:00.958Z,18.80
2023-05-07T16:45:30.392Z,19.83
2023-05-07T16:48:00.258Z,20.48
2023-05-07T16:50:37.085Z,18.60
2023-05-07T16:53:09.334Z,16.80
2023-05-07T16:55:42.819Z,15.77
2023-05-07T16:58:13.761Z,14.18
2023-05-07T17:00:50.575Z,12.43
2023-05-07T17:03:20.935Z,13.27
2023-05-07T17:05:50.124Z,12.60
2023-05-07T17:08:19.398Z,11.65
2023-05-07T17:10:48.698Z,13.55
2023-05-07T17:13:18.083Z,11.75
2023-05-07T17:15:48.655Z,11.38
2023-05-07T17:18:17.882Z,10.77
2023-05-07T17:20:47.276Z,10.43
2023-05-07T17:23:16.686Z,11.40
2023-05-07T17:25:46.838Z,10.90
2023-05-07T17:28:16.709Z,10.90
2023-05-07T17:30:47.699Z,9.48
2023-05-07T17:33:21.466Z,8.70
2023-05-07T17:35:51.814Z,8.48
2023-05-07T17:38:21.055Z,7.72
2023-05-07T17:40:50.442Z,7.63
2023-05-07T17:43:20.218Z,6.40
2023-05-07T17:45:49.646Z,6.88
2023-05-07T17:48:18.882Z,8.57
2023-05-07T17:50:49.605Z,7.43
2023-05-07T17:53:18.970Z,7.30
2023-05-07T17:55:48.996Z,6.85
2023-05-07T17:58:18.550Z,6.63
2023-05-07T18:00:47.672Z,7.45
2023-05-07T18:03:17.351Z,6.82
2023-05-07T18:05:47.195Z,6.82
2023-05-07T18:08:16.567Z,7.55
2023-05-07T18:10:45.805Z,7.72
2023-05-07T18:13:15.309Z,7.80
2023-05-07T18:15:47.306Z,7.53
2023-05-07T18:18:17.371Z,8.70
2023-05-07T18:20:56.257Z,9.25
2023-05-07T18:23:26.366Z,9.65
2023-05-07T18:25:55.842Z,10.30
2023-05-07T18:28:24.956Z,11.63
2023-05-07T18:30:54.930Z,11.40
2023-05-07T18:33:24.378Z,11.88
2023-05-07T18:35:53.980Z,13.13
2023-05-07T18:38:23.386Z,13.48
2023-05-07T18:40:52.516Z,13.70
2023-05-07T18:43:21.989Z,14.20
2023-05-07T18:45:51.188Z,14.73
2023-05-07T18:48:22.074Z,15.32
2023-05-07T18:50:52.151Z,15.55
2023-05-07T18:53:21.610Z,15.35
2023-05-07T18:55:54.513Z,15.10
2023-05-07T18:58:24.591Z,15.40
2023-05-07T19:00:54.027Z,16.83
2023-05-07T19:03:23.136Z,18.80
2023-05-07T19:05:52.533Z,18.65
2023-05-07T19:08:21.755Z,19.73
2023-05-07T19:10:51.525Z,21.30
2023-05-07T19:13:21.191Z,22.02
2023-05-07T19:15:50.974Z,23.55
2023-05-07T19:18:20.363Z,22.55
2023-05-07T19:20:53.544Z,21.92
2023-05-07T19:23:25.363Z,20.95
2023-05-07T19:25:54.820Z,21.30
2023-05-07T19:28:24.387Z,21.95
2023-05-07T19:30:54.617Z,22.10
2023-05-07T19:33:25.334Z,23.02
2023-05-07T19:35:59.371Z,23.90
2023-05-07T19:38:29.114Z,26.38
2023-05-07T19:41:01.796Z,25.63
2023-05-07T19:43:39.192Z,25.70
2023-05-07T19:46:08.646Z,24.13
2023-05-07T19:48:37.808Z,23.50
2023-05-07T19:51:07.582Z,22.63
2023-05-07T19:53:36.633Z,21.00
2023-05-07T19:56:11.042Z,20.80
2023-05-07T19:58:40.971Z,18.45
2023-05-07T20:01:10.553Z,16.75
2023-05-07T20:03:39.927Z,16.65
2023-05-07T20:06:09.426Z,16.67
2023-05-07T20:08:38.616Z,17.42
2023-05-07T20:11:08.060Z,18.08
2023-05-07T20:13:37.149Z,20.17
2023-05-07T20:16:06.714Z,20.98
2023-05-07T20:18:35.928Z,22.30
2023-05-07T20:21:05.938Z,24.27
2023-05-07T20:23:35.542Z,23.77
2023-05-07T20:26:04.867Z,22.60
2023-05-07T20:28:33.943Z,21.33
2023-05-07T20:31:03.467Z,20.40
2023-05-07T20:33:32.821Z,21.05
2023-05-07T20:36:02.096Z,21.75
2023-05-07T20:38:35.256Z,21.13
2023-05-07T20:41:15.374Z,20.60
2023-05-07T20:44:01.596Z,20.48
2023-05-07T20:46:31.412Z,19.70
2023-05-07T20:49:00.758Z,17.23
2023-05-07T20:51:30.035Z,17.15
2023-05-07T20:53:59.197Z,16.17
2023-05-07T20:56:28.788Z,15.05
2023-05-07T20:58:58.097Z,13.38
2023-05-07T21:01:27.228Z,12.90
2023-05-07T21:03:56.361Z,12.38
2023-05-07T21:06:27.311Z,11.95
2023-05-07T21:08:57.039Z,10.35
2023-05-07T21:11:26.568Z,11.82
2023-05-07T21:13:55.749Z,12.65
2023-05-07T21:16:25.046Z,13.02
2023-05-07T21:18:54.270Z,14.07
2023-05-07T21:21:23.610Z,16.13
2023-05-07T21:23:54.432Z,17.42
2023-05-07T21:26:24.004Z,17.40
2023-05-07T21:28:53.320Z,17.10
2023-05-07T21:31:23.040Z,15.55
2023-05-07T21:33:54.388Z,13.77
2023-05-07T21:36:23.654Z,12.32
2023-05-07T21:38:52.813Z,12.15
2023-05-07T21:41:23.054Z,10.73
2023-05-07T21:43:52.589Z,9.48
2023-05-07T21:46:21.981Z,8.90
2023-05-07T21:48:51.493Z,7.72
2023-05-07T21:51:20.432Z,7.20
2023-05-07T21:53:50.016Z,7.30
2023-05-07T21:56:19.172Z,5.43
2023-05-07T21:58:49.574Z,5.05
2023-05-07T22:01:19.381Z,5.43
2023-05-07T22:03:48.667Z,4.50
2023-05-07T22:06:22.836Z,4.13
2023-05-07T22:08:52.632Z,4.90
2023-05-07T22:11:23.288Z,4.13
2023-05-07T22:13:52.784Z,4.60
2023-05-07T22:16:22.514Z,3.97
2023-05-07T22:18:51.952Z,4.22
2023-05-07T22:21:21.201Z,4.20
2023-05-07T22:23:50.258Z,4.25
2023-05-07T22:26:19.612Z,4.00
2023-05-07T22:28:48.671Z,3.67
2023-05-07T22:31:18.661Z,3.45
2023-05-07T22:33:48.400Z,3.75
2023-05-07T22:36:17.374Z,3.22
2023-05-07T22:38:47.215Z,2.58
2023-05-07T22:41:17.158Z,3.53
2023-05-07T22:43:46.719Z,4.47
2023-05-07T22:46:16.563Z,4.72
2023-05-07T22:48:47.198Z,5.60
2023-05-07T22:51:16.934Z,5.18
2023-05-07T22:53:46.191Z,4.57
2023-05-07T22:56:15.475Z,4.35
2023-05-07T22:58:44.592Z,3.40
2023-05-07T23:01:19.586Z,4.47
2023-05-07T23:03:48.949Z,3.80
2023-05-07T23:06:18.351Z,3.75
2023-05-07T23:08:47.545Z,3.50
2023-05-07T23:11:16.974Z,3.60
2023-05-07T23:13:45.996Z,2.80
2023-05-07T23:16:15.142Z,2.38
2023-05-07T23:18:44.534Z,2.60
2023-05-07T23:21:13.732Z,2.47
2023-05-07T23:23:42.878Z,2.75
2023-05-07T23:26:12.582Z,3.03
2023-05-07T23:28:42.543Z,2.42
2023-05-07T23:31:13.894Z,2.90
2023-05-07T23:33:43.368Z,2.60
2023-05-07T23:36:12.318Z,2.58
2023-05-07T23:38:41.636Z,2.30
2023-05-07T23:41:10.204Z,2.28
2023-05-07T23:43:39.837Z,2.50
2023-05-07T23:46:09.058Z,2.60
2023-05-07T23:48:38.309Z,2.67
2023-05-07T23:51:07.384Z,2.40
2023-05-07T23:53:37.190Z,1.85
2023-05-07T23:56:06.991Z,2.30
2023-05-07T23:58:36.495Z,2.08
